Virtual United States Air Force

 METAR AND TAF INFORMATION
METAR FOR KSKF
ADDS - METARS form results

(1109 UTC 26 June 2022)
Data provider http://aviationweather.gov/metar/data/
 
METAR text: KSKF 261101Z AUTO 15003KT 10SM SCT017 BKN023 25/22 A3005 RMK AO2 CIG 017V023 CIG 015 RWY34 SLP167 $
Conditions at: KSKF (KELLY AFB , TX, US) observed 1101 UTC 26 June 2022
Temperature: 25.0°C (77°F)
Dewpoint: 22.0°C (72°F) [RH = 83%]
Pressure (altimeter): 30.05 inches Hg (1017.7 mb)
[Sea-level pressure: 1016.7 mb]
Winds: from the SSE (150 degrees) at 3 MPH (3 knots; 1.5 m/s)
Visibility: 10 or more miles (16+ km)
Ceiling: 2300 feet AGL
Clouds: scattered clouds at 1700 feet AGL
broken clouds at 2300 feet AGL
Weather:
SOME DATA ABOVE MAY BE INACCURATE!!!
"$" is an indication the sensor requires maintenance

METAR text: KSKF 261041Z AUTO 15003KT 10SM SCT017 24/22 A3004 RMK AO2 SLP164 $
Conditions at: KSKF (KELLY AFB , TX, US) observed 1041 UTC 26 June 2022
Temperature: 24.0°C (75°F)
Dewpoint: 22.0°C (72°F) [RH = 89%]
Pressure (altimeter): 30.04 inches Hg (1017.4 mb)
[Sea-level pressure: 1016.4 mb]
Winds: from the SSE (150 degrees) at 3 MPH (3 knots; 1.5 m/s)
Visibility: 10 or more miles (16+ km)
Ceiling: at least 12,000 feet AGL
Clouds: scattered clouds at 1700 feet AGL
Weather:
SOME DATA ABOVE MAY BE INACCURATE!!!
"$" is an indication the sensor requires maintenance

METAR text: KSKF 261031Z AUTO 16003KT 10SM BKN019 24/22 A3004 RMK AO2 CIG 017 RWY34 SLP164 $
Conditions at: KSKF (KELLY AFB , TX, US) observed 1031 UTC 26 June 2022
Temperature: 24.0°C (75°F)
Dewpoint: 22.0°C (72°F) [RH = 89%]
Pressure (altimeter): 30.04 inches Hg (1017.4 mb)
[Sea-level pressure: 1016.4 mb]
Winds: from the SSE (160 degrees) at 3 MPH (3 knots; 1.5 m/s)
Visibility: 10 or more miles (16+ km)
Ceiling: 1900 feet AGL
Clouds: broken clouds at 1900 feet AGL
Weather:
SOME DATA ABOVE MAY BE INACCURATE!!!
"$" is an indication the sensor requires maintenance

METAR text: KSKF 261026Z AUTO 15003KT 10SM SCT018 24/22 A3004 RMK AO2 SLP164 $
Conditions at: KSKF (KELLY AFB , TX, US) observed 1026 UTC 26 June 2022
Temperature: 24.0°C (75°F)
Dewpoint: 22.0°C (72°F) [RH = 89%]
Pressure (altimeter): 30.04 inches Hg (1017.4 mb)
[Sea-level pressure: 1016.4 mb]
Winds: from the SSE (150 degrees) at 3 MPH (3 knots; 1.5 m/s)
Visibility: 10 or more miles (16+ km)
Ceiling: at least 12,000 feet AGL
Clouds: scattered clouds at 1800 feet AGL
Weather:
SOME DATA ABOVE MAY BE INACCURATE!!!
"$" is an indication the sensor requires maintenance

Forecast for: KSKF (KELLY AFB , TX, US)
Text: TAF KSKF 261000Z 2610/2716 15006KT 9999 SCT015 QNH2999INS
Forecast period: 1000 to 1700 UTC 26 June 2022
Forecast type: FROM: standard forecast or significant change
Winds: from the SSE (150 degrees) at 7 MPH (6 knots; 3.1 m/s)
Visibility: 6 or more miles (10+ km)
Ceiling: at least 12,000 feet AGL
Clouds: scattered clouds at 1500 feet AGL
Weather: no significant weather forecast for this period
Text: TEMPO 2610/2615 BKN015
Forecast period: 1000 to 1500 UTC 26 June 2022
Forecast type: TEMPORARY: The following changes expected for less than half the time period
Visibility: missing
Ceiling: 1500 feet AGL
Clouds: broken clouds at 1500 feet AGL
Weather: no significant weather forecast for this period
Text: BECMG 2617/2618 13015G20KT 9999 FEW100 QNH2994INS
Forecast period: 1700 UTC 26 June 2022 to 0300 UTC 27 June 2022
Forecast type: BECOMING: Conditions expected to become as follows by 1800 UTC 26 June 2022
Winds: from the SE (130 degrees) at 17 MPH (15 knots; 7.7 m/s)
gusting to 23 MPH (20 knots; 10.3 m/s)
Visibility: 6 or more miles (10+ km)
Ceiling: at least 12,000 feet AGL
Clouds: few clouds at 10000 feet AGL
Weather: no significant weather forecast for this period
Text: BECMG 2703/2704 15006KT 9999 BKN080 QNH2996INS
Forecast period: 0300 to 0900 UTC 27 June 2022
Forecast type: BECOMING: Conditions expected to become as follows by 0400 UTC 27 June 2022
Winds: from the SSE (150 degrees) at 7 MPH (6 knots; 3.1 m/s)
Visibility: 6 or more miles (10+ km)
Ceiling: 8000 feet AGL
Clouds: broken clouds at 8000 feet AGL
Weather: no significant weather forecast for this period
Text: BECMG 2709/2710 30006KT 9999 BKN050 BKN120 QNH3003INS TX37/2620Z TN23/2610Z
Forecast period: 0900 to 1600 UTC 27 June 2022
Forecast type: BECOMING: Conditions expected to become as follows by 1000 UTC 27 June 2022
Winds: from the WNW (300 degrees) at 7 MPH (6 knots; 3.1 m/s)
Visibility: 6 or more miles (10+ km)
Ceiling: 5000 feet AGL
Clouds: broken clouds at 5000 feet AGL
broken clouds at 12000 feet AGL
Weather: no significant weather forecast for this period

 AIRPORT MAP

 RUNWAY INFORMATION
Runway 15 Runway length 11550 ft Runway width 300 ft
Runway elevation 691 ft Runway displaced threshold 0 ft Runway heading 162
Runway 33 Runway length 11550 ft Runway width 300 ft
Runway elevation 660 ft Runway displaced threshold 0 ft Runway heading 342

 AIRPORT FREQUENCIES
Type APP Name SAN ANTONI Frequency 118.05 MHZ
Type ATIS Name ATIS Frequency 120.45 MHZ
Type DEP Name SAN ANTONI Frequency 125.7 MHZ
Type GND Name GND Frequency 121.8 MHZ
Type PMSV Name PMSV METRO Frequency 23.98 MHZ
Type POST Name AFRC COMD Frequency 143.8 MHZ
Type PTD Name PTD Frequency 130.65 MHZ
Type TWR Name KELLY TWR Frequency 124.3 MHZ

 AIRPORT NEAR NAVIGATION AIDS


Neither the Department of the Air Force, nor any other component of the Department of Defense or Federal Government has approved, endorsed, or authorized this promotion, activity, or organization. Virtual United States Air Force organization is in no way affiliated with the Department of Defense, Department of the Air Force, or any other federal or government entity. Virtual United States Air Force is a group of flight simulation enthusiasts with the common interest of promoting enjoyment and cameraderie through the simulation of military operations and procedures utilizing several flight simulation platforms.

Copyright © vUSAF, LLC // 2018-2022 All Rights Reserved